Time;durP1;ratioP1;P1;durP2;ratioP2;P2;SDS_P1;SDS_P2;PMS_P1;PMS_P2;Temp;Humidity;BMP_temperature;BMP_pressure;BME280_temperature;BME280_humidity;BME280_pressure;Samples;Min_cycle;Max_cycle;Signal;HPM_P1;HPM_P2
2022/08/19 00:02:30;;;;;;;12.77;12.07;;;21.70;1.00;;;;;;6281551;28;20316;-55
2022/08/19 00:05:42;;;;;;;13.90;12.80;;;21.70;1.00;;;;;;6288759;28;20534;-57
2022/08/19 00:08:45;;;;;;;13.33;12.33;;;21.70;1.00;;;;;;6271394;28;20728;-56
2022/08/19 00:11:49;;;;;;;13.77;12.67;;;21.70;1.00;;;;;;6279007;28;20678;-56
2022/08/19 00:14:54;;;;;;;14.47;13.47;;;21.70;1.00;;;;;;6284559;28;20290;-57
2022/08/19 00:17:56;;;;;;;15.73;14.23;;;21.70;1.00;;;;;;6281448;28;20233;-57
2022/08/19 00:21:00;;;;;;;15.00;13.90;;;21.70;1.00;;;;;;6277861;28;20325;-56
2022/08/19 00:24:03;;;;;;;14.90;13.60;;;21.70;1.00;;;;;;6260059;28;20229;-56
2022/08/19 00:27:06;;;;;;;14.23;13.17;;;21.60;1.00;;;;;;6258470;28;20236;-56
2022/08/19 00:30:29;;;;;;;14.47;13.47;;;21.70;1.00;;;;;;6257316;28;20325;-57
2022/08/19 00:33:33;;;;;;;15.37;14.17;;;21.70;1.00;;;;;;6269224;28;20229;-56
2022/08/19 00:36:37;;;;;;;15.13;14.00;;;21.70;1.00;;;;;;6284113;28;20248;-57
2022/08/19 00:39:40;;;;;;;15.23;14.20;;;21.70;1.00;;;;;;6282794;28;20258;-57
2022/08/19 00:42:44;;;;;;;15.50;14.27;;;21.70;1.00;;;;;;6277983;28;20383;-57
2022/08/19 00:45:49;;;;;;;15.93;14.67;;;21.70;1.00;;;;;;6283178;28;20313;-59
2022/08/19 00:48:52;;;;;;;15.83;14.70;;;21.70;1.00;;;;;;6283043;28;20233;-55
2022/08/19 00:52:01;;;;;;;17.17;15.73;;;21.70;1.00;;;;;;6269984;28;20320;-54
2022/08/19 00:55:08;;;;;;;17.60;15.83;;;21.70;1.00;;;;;;6251366;28;20260;-56
2022/08/19 00:58:16;;;;;;;17.40;15.70;;;21.70;1.00;;;;;;6260042;28;20218;-55
2022/08/19 01:01:21;;;;;;;17.63;16.07;;;21.60;1.00;;;;;;6259114;28;20242;-56
2022/08/19 01:04:23;;;;;;;17.13;15.73;;;21.60;1.00;;;;;;6269110;28;20244;-55
2022/08/19 01:07:26;;;;;;;17.10;15.70;;;21.60;1.00;;;;;;6276180;28;20288;-54
2022/08/19 01:10:41;;;;;;;18.13;16.50;;;21.60;1.00;;;;;;6267783;28;20294;-54
2022/08/19 01:13:46;;;;;;;16.37;15.27;;;21.50;1.00;;;;;;6281488;28;20320;-53
2022/08/19 01:16:56;;;;;;;16.27;14.97;;;21.40;1.00;;;;;;6280942;28;20796;-55
2022/08/19 01:19:59;;;;;;;16.67;15.33;;;21.40;1.00;;;;;;6260808;28;20328;-56
2022/08/19 01:23:04;;;;;;;16.67;15.37;;;21.40;1.00;;;;;;6261426;28;20241;-55
2022/08/19 01:26:08;;;;;;;16.23;15.10;;;21.30;1.00;;;;;;6263925;28;20248;-55
2022/08/19 01:29:12;;;;;;;16.80;15.43;;;21.30;1.00;;;;;;6286554;28;20247;-56
2022/08/19 01:32:19;;;;;;;17.00;15.83;;;21.30;1.00;;;;;;6289116;28;20234;-55
2022/08/19 01:35:36;;;;;;;16.60;15.37;;;21.30;1.00;;;;;;6274891;28;20723;-53
2022/08/19 01:38:42;;;;;;;17.13;15.83;;;21.30;1.00;;;;;;6263974;28;20226;-54
2022/08/19 01:41:46;;;;;;;18.00;16.60;;;21.20;1.00;;;;;;6267858;28;20286;-55
2022/08/19 01:44:49;;;;;;;18.83;17.13;;;21.30;1.00;;;;;;6275265;28;20284;-54
2022/08/19 01:47:52;;;;;;;16.90;15.63;;;21.30;1.00;;;;;;6291174;28;20260;-54
2022/08/19 01:51:05;;;;;;;19.90;18.10;;;21.30;1.00;;;;;;6289492;28;20244;-53
2022/08/19 01:54:09;;;;;;;18.80;17.30;;;21.30;1.00;;;;;;6282419;28;20328;-54
2022/08/19 01:57:14;;;;;;;20.70;16.70;;;21.20;1.00;;;;;;6264771;28;20234;-55
2022/08/19 02:00:22;;;;;;;18.63;16.93;;;21.20;1.00;;;;;;6257932;28;20597;-51
2022/08/19 02:03:25;;;;;;;17.57;16.13;;;21.20;1.00;;;;;;6266317;28;20656;-53
2022/08/19 02:06:29;;;;;;;18.70;17.03;;;21.10;1.00;;;;;;6288427;28;20240;-54
2022/08/19 02:09:37;;;;;;;17.47;15.80;;;21.10;1.00;;;;;;6275387;28;20287;-54
2022/08/19 02:12:40;;;;;;;16.33;15.10;;;21.00;1.00;;;;;;6263674;28;20292;-54
2022/08/19 02:15:54;;;;;;;17.37;15.70;;;20.90;1.00;;;;;;6283734;28;20580;-55
2022/08/19 02:18:57;;;;;;;17.13;15.70;;;20.90;1.00;;;;;;6275863;28;20774;-54
2022/08/19 02:22:01;;;;;;;16.77;15.47;;;20.90;1.00;;;;;;6287623;28;20235;-54
2022/08/19 02:25:06;;;;;;;16.03;14.77;;;20.90;1.00;;;;;;6288380;28;20718;-55
2022/08/19 02:28:08;;;;;;;15.60;14.30;;;20.80;1.00;;;;;;6287458;28;20750;-55
2022/08/19 02:31:12;;;;;;;17.67;16.17;;;20.80;1.00;;;;;;6288258;28;20239;-55
2022/08/19 02:34:15;;;;;;;17.83;16.20;;;20.70;1.00;;;;;;6279929;28;20604;-54
2022/08/19 02:40:40;;;;;;;17.20;15.70;;;20.70;1.00;;;;;;6263204;28;20702;-56
2022/08/19 02:43:43;;;;;;;16.53;15.37;;;20.70;1.00;;;;;;6268492;28;20295;-53
2022/08/19 02:47:06;;;;;;;17.00;15.70;;;20.70;1.00;;;;;;6279493;28;20632;-56
2022/08/19 02:50:10;;;;;;;17.13;15.73;;;20.70;1.00;;;;;;6285687;28;20232;-55
2022/08/19 02:53:13;;;;;;;17.10;15.90;;;20.70;1.00;;;;;;6269780;28;20376;-54
2022/08/19 02:56:18;;;;;;;16.93;15.53;;;20.70;1.00;;;;;;6253660;28;20388;-54
2022/08/19 02:59:21;;;;;;;18.27;16.77;;;20.70;1.00;;;;;;6262343;28;20332;-54
2022/08/19 03:02:25;;;;;;;17.03;15.73;;;20.80;1.00;;;;;;6264023;28;20250;-54
2022/08/19 03:05:27;;;;;;;18.67;17.17;;;20.80;1.00;;;;;;6271241;28;20421;-55
2022/08/19 03:08:50;;;;;;;18.60;17.00;;;20.80;1.00;;;;;;6287207;28;20728;-54
2022/08/19 03:11:55;;;;;;;17.83;16.43;;;20.80;1.00;;;;;;6271158;28;20718;-55
2022/08/19 03:15:00;;;;;;;18.70;17.30;;;20.70;1.00;;;;;;6276559;28;20730;-54
2022/08/19 03:18:03;;;;;;;17.23;15.63;;;20.70;1.00;;;;;;6286064;28;20618;-54
2022/08/19 03:21:06;;;;;;;16.47;15.07;;;20.70;1.00;;;;;;6273259;28;20233;-55
2022/08/19 03:24:16;;;;;;;17.37;15.90;;;20.70;1.00;;;;;;6286548;28;20606;-54
2022/08/19 03:27:20;;;;;;;16.43;15.07;;;20.70;1.00;;;;;;6280239;28;20465;-55
2022/08/19 03:30:23;;;;;;;16.60;15.13;;;20.80;1.00;;;;;;6249580;28;20250;-53
2022/08/19 03:33:27;;;;;;;16.50;15.20;;;20.70;1.00;;;;;;6266224;28;20242;-54
2022/08/19 03:36:30;;;;;;;16.47;15.27;;;20.60;1.00;;;;;;6280416;28;20252;-53
2022/08/19 03:39:39;;;;;;;17.00;15.63;;;20.60;1.00;;;;;;6278179;28;20360;-53
2022/08/19 03:42:43;;;;;;;18.43;16.87;;;20.60;1.00;;;;;;6284630;28;20238;-54
2022/08/19 03:46:04;;;;;;;17.60;16.23;;;20.60;1.00;;;;;;6285423;28;20237;-54
2022/08/19 03:49:08;;;;;;;17.80;16.40;;;20.60;1.00;;;;;;6282126;28;20225;-54
2022/08/19 03:52:11;;;;;;;16.77;15.43;;;20.60;1.00;;;;;;6285045;28;20765;-54
2022/08/19 03:55:15;;;;;;;17.40;16.10;;;20.60;1.00;;;;;;6281189;28;20715;-55
2022/08/19 03:58:30;;;;;;;17.73;16.37;;;20.50;1.00;;;;;;6284133;28;20448;-55
2022/08/19 04:01:33;;;;;;;18.17;16.77;;;20.60;1.00;;;;;;6275982;28;20502;-54
2022/08/19 04:04:39;;;;;;;17.77;16.30;;;20.50;1.00;;;;;;6285486;28;20244;-53
2022/08/19 04:07:42;;;;;;;18.13;16.73;;;20.60;1.00;;;;;;6276046;28;20233;-55
2022/08/19 04:10:45;;;;;;;17.27;16.03;;;20.60;1.00;;;;;;6284960;28;20241;-55
2022/08/19 04:13:51;;;;;;;17.57;16.27;;;20.60;1.00;;;;;;6284256;28;20255;-56
2022/08/19 04:16:54;;;;;;;17.63;16.07;;;20.60;1.00;;;;;;6250702;28;20289;-56
2022/08/19 04:19:57;;;;;;;17.13;15.83;;;20.60;1.00;;;;;;6282359;28;20249;-55
2022/08/19 04:23:02;;;;;;;17.87;16.37;;;20.60;1.00;;;;;;6284149;28;20229;-56
2022/08/19 04:26:05;;;;;;;17.87;16.33;;;20.60;1.00;;;;;;6282626;28;20283;-54
2022/08/19 04:29:14;;;;;;;17.43;15.93;;;20.60;1.00;;;;;;6276420;28;20241;-53
2022/08/19 04:32:17;;;;;;;18.17;16.60;;;20.60;1.00;;;;;;6281734;28;20320;-54
2022/08/19 04:35:20;;;;;;;17.87;16.47;;;20.60;1.00;;;;;;6283776;28;20237;-56
2022/08/19 04:38:26;;;;;;;17.37;16.07;;;20.70;1.00;;;;;;6283627;28;20251;-53
2022/08/19 04:44:59;;;;;;;17.57;15.97;;;20.80;1.00;;;;;;6279856;28;20651;-52
2022/08/19 04:48:03;;;;;;;17.33;15.93;;;20.80;1.00;;;;;;6275602;28;20233;-52
2022/08/19 04:51:26;;;;;;;17.63;16.20;;;20.80;1.00;;;;;;6276458;28;20241;-52
2022/08/19 04:54:29;;;;;;;18.00;16.63;;;20.80;1.00;;;;;;6282922;28;20729;-53
2022/08/19 04:57:40;;;;;;;17.33;16.13;;;20.90;1.00;;;;;;6272254;28;20454;-54
2022/08/19 05:00:44;;;;;;;18.10;16.70;;;20.90;1.00;;;;;;6279685;28;20237;-54
2022/08/19 05:03:47;;;;;;;16.53;15.33;;;20.90;1.00;;;;;;6281294;28;20706;-55
2022/08/19 05:06:51;;;;;;;17.20;15.90;;;20.90;1.00;;;;;;6282543;28;20383;-55
2022/08/19 05:10:01;;;;;;;18.33;17.03;;;21.00;1.00;;;;;;6281608;28;20248;-53
2022/08/19 05:13:04;;;;;;;17.23;15.93;;;21.10;1.00;;;;;;6254870;28;20229;-53
2022/08/19 05:16:08;;;;;;;16.73;15.43;;;21.20;1.00;;;;;;6284246;28;20240;-60
2022/08/19 05:22:37;;;;;;;17.00;15.40;;;21.20;1.00;;;;;;6274131;28;20642;-54
2022/08/19 05:25:41;;;;;;;16.90;15.50;;;21.30;1.00;;;;;;6282787;28;20367;-55
2022/08/19 05:28:46;;;;;;;16.70;15.43;;;21.40;1.00;;;;;;6282803;28;20229;-55
2022/08/19 05:31:51;;;;;;;15.67;14.67;;;21.40;1.00;;;;;;6281302;28;20347;-55
2022/08/19 05:34:55;;;;;;;16.70;15.50;;;21.50;1.00;;;;;;6283509;28;20298;-54
2022/08/19 05:38:01;;;;;;;16.13;14.70;;;21.50;1.00;;;;;;6279079;28;20233;-55
2022/08/19 05:41:09;;;;;;;16.83;15.53;;;21.60;1.00;;;;;;6282865;28;20348;-55
2022/08/19 05:44:12;;;;;;;16.93;15.43;;;21.70;1.00;;;;;;6283024;28;20298;-54
2022/08/19 05:47:19;;;;;;;17.50;15.63;;;21.90;1.00;;;;;;6274215;28;20225;-55
2022/08/19 05:50:22;;;;;;;16.43;15.13;;;21.90;1.00;;;;;;6283620;28;20775;-55
2022/08/19 05:53:25;;;;;;;20.90;16.10;;;22.00;1.00;;;;;;6283589;28;20235;-55
2022/08/19 05:56:30;;;;;;;20.43;15.77;;;22.10;1.00;;;;;;6277001;28;20316;-57
2022/08/19 05:59:35;;;;;;;16.07;14.60;;;22.10;1.00;;;;;;6279019;28;20311;-55
2022/08/19 06:02:42;;;;;;;17.00;15.70;;;22.10;1.00;;;;;;6283872;28;20237;-55
2022/08/19 06:05:45;;;;;;;16.40;15.07;;;22.20;1.00;;;;;;6283206;28;20229;-54
2022/08/19 06:08:54;;;;;;;16.77;15.47;;;22.30;1.00;;;;;;6278642;28;20241;-59
2022/08/19 06:11:59;;;;;;;17.10;15.90;;;22.40;1.00;;;;;;6283876;28;20232;-55
2022/08/19 06:15:06;;;;;;;16.07;14.83;;;22.40;1.00;;;;;;6279648;28;20318;-55
2022/08/19 06:18:10;;;;;;;16.50;15.23;;;22.40;1.00;;;;;;6277499;28;20226;-56
2022/08/19 06:21:14;;;;;;;17.23;15.73;;;22.40;1.00;;;;;;6282239;28;20338;-60
2022/08/19 06:24:20;;;;;;;17.10;15.90;;;22.40;1.00;;;;;;6281936;28;20236;-55
2022/08/19 06:27:23;;;;;;;15.83;14.63;;;22.40;1.00;;;;;;6287432;28;20290;-55
2022/08/19 06:30:26;;;;;;;17.43;15.93;;;22.50;1.00;;;;;;6286779;28;20582;-55
2022/08/19 06:33:33;;;;;;;17.67;16.27;;;22.60;1.00;;;;;;6286492;28;20268;-55
2022/08/19 06:36:40;;;;;;;18.60;17.20;;;22.70;1.00;;;;;;6280973;28;20228;-55
2022/08/19 06:39:45;;;;;;;17.73;16.13;;;22.70;1.00;;;;;;6286797;28;20367;-53
2022/08/19 06:42:48;;;;;;;18.87;17.23;;;22.80;1.00;;;;;;6286367;28;20225;-55
2022/08/19 06:45:58;;;;;;;16.67;15.23;;;22.90;1.00;;;;;;6287291;28;20329;-61
2022/08/19 06:49:05;;;;;;;18.00;16.87;;;23.00;1.00;;;;;;6285639;28;20233;-55
2022/08/19 06:52:11;;;;;;;18.60;17.20;;;23.00;1.00;;;;;;6278285;28;20283;-56
2022/08/19 06:55:16;;;;;;;18.00;16.60;;;23.10;1.00;;;;;;6284176;28;20296;-56
2022/08/19 06:58:20;;;;;;;17.07;15.70;;;23.10;1.00;;;;;;6284236;28;20265;-55
2022/08/19 07:01:23;;;;;;;18.03;16.63;;;23.20;1.00;;;;;;6281183;28;20288;-55
2022/08/19 07:04:31;;;;;;;17.20;15.77;;;23.30;1.00;;;;;;6286876;28;20326;-55
2022/08/19 07:07:35;;;;;;;16.97;15.77;;;23.40;1.00;;;;;;6275109;28;20631;-56
2022/08/19 07:10:38;;;;;;;18.97;17.57;;;23.50;1.00;;;;;;6285989;28;20330;-57
2022/08/19 07:13:45;;;;;;;18.03;16.73;;;23.50;1.00;;;;;;6286013;28;20356;-55
2022/08/19 07:16:51;;;;;;;19.23;17.53;;;23.50;1.00;;;;;;6285117;28;20237;-56
2022/08/19 07:19:55;;;;;;;18.33;16.87;;;23.50;1.00;;;;;;6286365;28;20294;-55
2022/08/19 07:22:58;;;;;;;18.00;16.63;;;23.50;1.00;;;;;;6284223;28;20770;-56
2022/08/19 07:26:06;;;;;;;19.23;17.67;;;23.60;1.00;;;;;;6280717;28;20260;-61
2022/08/19 07:29:11;;;;;;;18.90;17.00;;;23.70;1.00;;;;;;6285725;28;20230;-56
2022/08/19 07:32:15;;;;;;;18.83;17.00;;;23.70;1.00;;;;;;6281696;28;20453;-55
2022/08/19 07:35:20;;;;;;;19.40;17.90;;;23.80;1.00;;;;;;6285625;28;20795;-55
2022/08/19 07:38:23;;;;;;;19.80;18.27;;;23.80;1.00;;;;;;6285396;28;20275;-58
2022/08/19 07:41:31;;;;;;;18.60;17.10;;;23.80;1.00;;;;;;6283867;28;20755;-56
2022/08/19 07:44:34;;;;;;;17.80;16.50;;;23.80;1.00;;;;;;6285277;28;20543;-57
2022/08/19 07:47:38;;;;;;;19.90;18.27;;;23.80;1.00;;;;;;6285454;28;20233;-55
2022/08/19 07:50:55;;;;;;;18.27;16.67;;;23.80;1.00;;;;;;6282982;28;20241;-56
2022/08/19 07:53:58;;;;;;;18.80;17.20;;;23.80;1.00;;;;;;6275180;28;20225;-57
2022/08/19 07:57:01;;;;;;;18.90;17.10;;;23.80;1.00;;;;;;6256711;28;20287;-52
2022/08/19 08:00:06;;;;;;;20.00;18.37;;;23.90;1.00;;;;;;6280793;28;20314;-56
2022/08/19 08:03:10;;;;;;;20.17;18.57;;;23.90;1.00;;;;;;6284621;28;20241;-57
2022/08/19 08:09:43;;;;;;;22.80;20.93;;;23.90;1.00;;;;;;6279865;28;20233;-56
2022/08/19 08:12:56;;;;;;;20.13;18.53;;;23.80;1.00;;;;;;6282950;28;20236;-57
2022/08/19 08:16:12;;;;;;;19.80;18.30;;;23.70;1.00;;;;;;6277313;28;20229;-56
2022/08/19 08:19:17;;;;;;;20.70;19.10;;;23.80;1.00;;;;;;6276362;28;20233;-57
2022/08/19 08:25:49;;;;;;;22.67;20.70;;;23.80;1.00;;;;;;6277593;28;20248;-58
2022/08/19 08:28:52;;;;;;;24.33;22.27;;;23.80;1.00;;;;;;6281876;28;20343;-58
2022/08/19 08:31:56;;;;;;;20.50;18.73;;;23.90;1.00;;;;;;6280091;28;20778;-56
2022/08/19 08:35:04;;;;;;;21.87;19.90;;;24.00;1.00;;;;;;6283528;28;20233;-57
2022/08/19 08:38:12;;;;;;;22.40;20.60;;;24.00;1.00;;;;;;6281908;28;20307;-58
2022/08/19 08:41:23;;;;;;;21.07;19.43;;;24.00;1.00;;;;;;6280963;28;20496;-57
2022/08/19 08:44:41;;;;;;;24.07;22.07;;;24.10;1.00;;;;;;6283187;28;20321;-56
2022/08/19 08:47:50;;;;;;;23.43;21.43;;;24.30;1.00;;;;;;6278592;28;20235;-56
2022/08/19 08:50:57;;;;;;;23.47;21.43;;;24.40;1.00;;;;;;6283924;28;20329;-57
2022/08/19 08:54:03;;;;;;;24.03;21.83;;;24.40;1.00;;;;;;6283524;28;20340;-57
2022/08/19 08:57:13;;;;;;;23.43;21.50;;;24.50;1.00;;;;;;6282186;28;20318;-56
2022/08/19 09:00:20;;;;;;;23.60;21.57;;;24.50;1.00;;;;;;6283820;28;20240;-55
2022/08/19 09:03:26;;;;;;;22.77;21.07;;;24.60;1.00;;;;;;6283771;28;20378;-56
2022/08/19 09:06:39;;;;;;;22.60;20.90;;;24.60;1.00;;;;;;6283251;28;20252;-56
2022/08/19 09:09:47;;;;;;;25.93;23.53;;;24.60;1.00;;;;;;6280801;28;20241;-57
2022/08/19 09:13:00;;;;;;;23.87;22.07;;;24.50;1.00;;;;;;6280036;28;20412;-59
2022/08/19 09:16:08;;;;;;;25.03;22.90;;;24.50;1.00;;;;;;6281302;28;20225;-57
2022/08/19 09:19:11;;;;;;;24.00;22.23;;;24.50;1.00;;;;;;6281655;28;20324;-56
2022/08/19 09:22:21;;;;;;;23.17;21.33;;;24.70;1.00;;;;;;6283243;28;20241;-58
2022/08/19 09:25:31;;;;;;;25.67;22.97;;;24.80;1.00;;;;;;6283017;28;20252;-56
2022/08/19 09:28:34;;;;;;;24.60;22.47;;;24.90;1.00;;;;;;6280269;28;20522;-57
2022/08/19 09:31:41;;;;;;;22.30;20.70;;;25.00;1.00;;;;;;6279502;28;20245;-55
2022/08/19 09:34:45;;;;;;;23.57;21.53;;;25.40;1.00;;;;;;6285265;28;20239;-56
2022/08/19 09:37:57;;;;;;;22.80;20.70;;;25.60;1.00;;;;;;6282031;28;20230;-57
2022/08/19 09:41:07;;;;;;;21.57;19.87;;;25.70;1.00;;;;;;6282403;28;20413;-57
2022/08/19 09:44:11;;;;;;;21.17;19.47;;;25.70;1.00;;;;;;6283274;28;20275;-56
2022/08/19 09:47:15;;;;;;;21.73;19.83;;;25.70;1.00;;;;;;6280898;28;20324;-56
2022/08/19 09:50:23;;;;;;;21.73;19.73;;;25.80;1.00;;;;;;6284190;28;20241;-56
2022/08/19 09:53:28;;;;;;;22.10;20.10;;;25.90;1.00;;;;;;6283200;28;20306;-58
2022/08/19 09:56:34;;;;;;;19.53;18.07;;;25.80;1.00;;;;;;6282212;28;20234;-55
2022/08/19 09:59:42;;;;;;;20.70;19.00;;;25.80;1.00;;;;;;6283495;28;20418;-55
2022/08/19 10:02:45;;;;;;;20.57;19.13;;;25.50;1.00;;;;;;6280680;28;20279;-56
2022/08/19 10:05:51;;;;;;;21.87;19.83;;;25.50;1.00;;;;;;6283444;28;20466;-54
2022/08/19 10:08:57;;;;;;;20.70;19.27;;;25.50;1.00;;;;;;6286015;28;20230;-56
2022/08/19 10:12:03;;;;;;;19.57;18.20;;;25.50;1.00;;;;;;6279510;28;20260;-57
2022/08/19 10:15:09;;;;;;;21.00;19.40;;;25.40;1.00;;;;;;6286435;28;20373;-56
2022/08/19 10:18:12;;;;;;;22.27;20.30;;;25.40;1.00;;;;;;6258356;28;20756;-56
2022/08/19 10:21:17;;;;;;;20.97;19.40;;;25.50;1.00;;;;;;6286034;28;20324;-51
2022/08/19 10:24:23;;;;;;;23.20;21.30;;;25.50;1.00;;;;;;6285245;28;20241;-55
2022/08/19 10:27:36;;;;;;;21.87;20.00;;;25.50;1.00;;;;;;6286872;28;20618;-56
2022/08/19 10:30:42;;;;;;;23.27;21.17;;;25.40;1.00;;;;;;6276970;28;20328;-57
2022/08/19 10:33:45;;;;;;;20.57;19.07;;;25.20;1.00;;;;;;6281940;28;20595;-56
2022/08/19 10:36:56;;;;;;;22.17;20.23;;;25.10;1.00;;;;;;6287365;28;20237;-59
2022/08/19 10:40:05;;;;;;;20.70;19.10;;;25.10;1.00;;;;;;6275757;28;20290;-57
2022/08/19 10:43:09;;;;;;;20.87;19.03;;;25.10;1.00;;;;;;6282355;28;20633;-58
2022/08/19 10:46:15;;;;;;;21.87;20.10;;;25.00;1.00;;;;;;6286099;28;20512;-57
2022/08/19 10:49:19;;;;;;;20.23;18.83;;;25.00;1.00;;;;;;6286767;28;20483;-56
2022/08/19 10:59:07;;;;;;;20.67;19.07;;;24.80;1.00;;;;;;6287088;28;25528;-57
2022/08/19 11:02:12;;;;;;;19.23;17.77;;;24.60;1.00;;;;;;6286243;28;20327;-58
2022/08/19 11:05:17;;;;;;;20.63;19.13;;;24.50;1.00;;;;;;6255061;28;20713;-56
2022/08/19 11:08:20;;;;;;;22.77;20.83;;;24.60;1.00;;;;;;6285006;28;20237;-58
2022/08/19 11:11:25;;;;;;;21.07;19.40;;;24.70;1.00;;;;;;6286525;28;20252;-57
2022/08/19 11:14:32;;;;;;;21.47;19.70;;;24.80;1.00;;;;;;6286775;28;20805;-58
2022/08/19 11:17:40;;;;;;;20.40;18.80;;;24.80;1.00;;;;;;6286853;28;20284;-57
2022/08/19 11:20:43;;;;;;;19.80;18.17;;;24.80;1.00;;;;;;6279667;28;20645;-59
2022/08/19 11:23:48;;;;;;;23.03;21.00;;;24.80;1.00;;;;;;6285259;28;20611;-55
2022/08/19 11:26:56;;;;;;;21.67;19.90;;;24.60;1.00;;;;;;6285496;28;21377;-58
2022/08/19 11:30:03;;;;;;;21.00;19.13;;;24.50;1.00;;;;;;6278391;28;20237;-57
2022/08/19 11:33:11;;;;;;;19.87;17.90;;;24.50;1.00;;;;;;6285443;28;20237;-55
2022/08/19 11:36:15;;;;;;;21.20;19.17;;;24.50;1.00;;;;;;6286392;28;20316;-55
2022/08/19 11:39:22;;;;;;;18.97;17.40;;;24.60;1.00;;;;;;6284816;28;20237;-56
2022/08/19 11:45:47;;;;;;;19.90;18.20;;;24.60;1.00;;;;;;6279704;28;20287;-54
2022/08/19 11:48:50;;;;;;;20.13;18.43;;;24.60;1.00;;;;;;6285672;28;20803;-54
2022/08/19 11:51:54;;;;;;;20.63;18.93;;;24.70;1.00;;;;;;6284467;28;20514;-56
2022/08/19 11:54:57;;;;;;;18.50;17.00;;;24.70;1.00;;;;;;6281242;28;20832;-57
2022/08/19 11:58:00;;;;;;;18.43;16.80;;;24.50;1.00;;;;;;6284953;28;20325;-57
2022/08/19 12:01:10;;;;;;;18.43;17.00;;;24.50;1.00;;;;;;6276356;28;20245;-54
2022/08/19 12:04:13;;;;;;;16.10;14.80;;;24.50;1.00;;;;;;6283168;28;20229;-58
2022/08/19 12:07:17;;;;;;;15.77;14.57;;;24.50;1.00;;;;;;6283168;28;20229;-56
2022/08/19 12:10:20;;;;;;;17.07;15.57;;;24.50;1.00;;;;;;6284018;28;20241;-56
2022/08/19 12:13:28;;;;;;;15.53;14.43;;;24.30;1.00;;;;;;6283950;28;20610;-58
2022/08/19 12:16:33;;;;;;;15.00;14.00;;;24.40;1.00;;;;;;6279655;28;20368;-58
2022/08/19 12:19:39;;;;;;;16.90;15.60;;;24.40;1.00;;;;;;6283442;28;20371;-56
2022/08/19 12:22:42;;;;;;;15.17;14.13;;;24.40;1.00;;;;;;6266975;28;20369;-56
2022/08/19 12:25:49;;;;;;;15.03;13.83;;;24.40;1.00;;;;;;6282298;28;20271;-57
2022/08/19 12:28:52;;;;;;;15.93;14.73;;;24.50;1.00;;;;;;6281916;28;20537;-56
2022/08/19 12:32:01;;;;;;;15.20;14.20;;;24.60;1.00;;;;;;6281616;28;20317;-57
2022/08/19 12:35:08;;;;;;;15.37;14.10;;;24.60;1.00;;;;;;6283431;28;20248;-53
2022/08/19 12:38:12;;;;;;;14.93;13.50;;;24.80;1.00;;;;;;6283241;28;20241;-61
2022/08/19 12:41:18;;;;;;;13.70;12.77;;;24.90;1.00;;;;;;6278862;28;20341;-56
2022/08/19 12:44:21;;;;;;;14.40;13.40;;;25.10;1.00;;;;;;6280980;28;20295;-55
2022/08/19 12:47:36;;;;;;;12.90;11.87;;;25.10;1.00;;;;;;6284072;28;20698;-55
2022/08/19 12:50:46;;;;;;;13.30;12.40;;;25.20;1.00;;;;;;6271085;28;20241;-55
2022/08/19 12:53:52;;;;;;;12.50;11.80;;;25.40;1.00;;;;;;6283343;28;20237;-56
2022/08/19 12:56:59;;;;;;;13.73;12.73;;;25.60;1.00;;;;;;6283679;28;20257;-56
2022/08/19 13:00:10;;;;;;;13.50;12.60;;;25.70;1.00;;;;;;6282845;28;20301;-55
2022/08/19 13:03:14;;;;;;;13.63;12.60;;;25.60;1.00;;;;;;6283676;28;20298;-54
2022/08/19 13:06:21;;;;;;;13.70;12.67;;;25.70;1.00;;;;;;6283580;28;20737;-56
2022/08/19 13:09:24;;;;;;;14.63;13.47;;;25.90;1.00;;;;;;6277545;28;20441;-56
2022/08/19 13:12:27;;;;;;;14.00;13.00;;;26.00;1.00;;;;;;6281757;28;20240;-54
2022/08/19 13:15:30;;;;;;;13.83;12.63;;;26.00;1.00;;;;;;6282880;28;20587;-57
2022/08/19 13:18:35;;;;;;;14.37;13.27;;;25.90;1.00;;;;;;6282807;28;20248;-56
2022/08/19 13:21:38;;;;;;;15.43;14.03;;;25.90;1.00;;;;;;6279552;28;20324;-55
2022/08/19 13:24:41;;;;;;;14.97;13.83;;;25.90;1.00;;;;;;6275286;28;20837;-56
2022/08/19 13:27:50;;;;;;;15.13;14.10;;;25.90;1.00;;;;;;6283777;28;20245;-54
2022/08/19 13:34:17;;;;;;;15.47;14.33;;;26.00;1.00;;;;;;6270205;28;20378;-55
2022/08/19 13:37:40;;;;;;;14.90;13.67;;;26.00;1.00;;;;;;6286734;28;20302;-56
2022/08/19 13:40:43;;;;;;;15.10;14.00;;;26.00;1.00;;;;;;6284533;28;20741;-56
2022/08/19 13:43:52;;;;;;;15.00;13.90;;;26.00;1.00;;;;;;6288524;28;21187;-58
2022/08/19 13:47:00;;;;;;;15.70;14.70;;;26.10;1.00;;;;;;6278876;28;20241;-55
2022/08/19 13:50:06;;;;;;;15.37;14.27;;;26.00;1.00;;;;;;6287293;28;20282;-55
2022/08/19 13:53:10;;;;;;;15.33;14.03;;;26.00;1.00;;;;;;6286639;28;20232;-56
2022/08/19 13:56:16;;;;;;;15.60;14.30;;;25.90;1.00;;;;;;6281967;28;20726;-55
2022/08/19 13:59:18;;;;;;;14.67;13.67;;;25.70;1.00;;;;;;6286623;28;20319;-55
2022/08/19 14:02:22;;;;;;;14.57;13.67;;;25.50;1.00;;;;;;6284743;28;20761;-56
2022/08/19 14:05:28;;;;;;;15.30;14.20;;;25.50;1.00;;;;;;6283323;28;20963;-57
2022/08/19 14:08:32;;;;;;;15.77;14.57;;;25.40;1.00;;;;;;6253732;28;20269;-56
2022/08/19 14:11:35;;;;;;;15.03;13.93;;;25.30;1.00;;;;;;6277595;28;20548;-56
2022/08/19 14:14:38;;;;;;;17.13;15.63;;;25.20;1.00;;;;;;6286401;28;20275;-55
2022/08/19 14:17:43;;;;;;;16.10;14.90;;;25.30;1.00;;;;;;6278320;28;20522;-56
2022/08/19 14:20:47;;;;;;;16.20;15.00;;;25.30;1.00;;;;;;6285331;28;20324;-57
2022/08/19 14:23:51;;;;;;;16.43;15.27;;;25.20;1.00;;;;;;6287484;28;20635;-56
2022/08/19 14:26:54;;;;;;;16.57;15.37;;;25.10;1.00;;;;;;6285785;28;20237;-56
2022/08/19 14:29:57;;;;;;;16.37;15.27;;;25.10;1.00;;;;;;6285796;28;20322;-57
2022/08/19 14:33:02;;;;;;;15.30;14.27;;;25.10;1.00;;;;;;6286916;28;20330;-57
2022/08/19 14:36:07;;;;;;;15.17;14.17;;;25.10;1.00;;;;;;6286567;28;20328;-57
2022/08/19 14:39:10;;;;;;;15.97;14.93;;;25.10;1.00;;;;;;6285411;28;20438;-56
2022/08/19 14:42:14;;;;;;;14.33;13.17;;;25.10;1.00;;;;;;6286180;28;20241;-58
2022/08/19 14:45:17;;;;;;;13.63;12.63;;;25.10;1.00;;;;;;6283608;28;20229;-55
2022/08/19 14:48:23;;;;;;;15.70;14.60;;;25.10;1.00;;;;;;6286717;28;20586;-55
2022/08/19 14:51:32;;;;;;;16.03;14.80;;;25.00;1.00;;;;;;6281508;28;20317;-56
2022/08/19 14:54:35;;;;;;;14.43;13.50;;;24.80;1.00;;;;;;6276047;28;20233;-59
2022/08/19 14:57:40;;;;;;;15.90;14.80;;;24.70;1.00;;;;;;6286013;28;20352;-55
2022/08/19 15:00:47;;;;;;;13.90;12.80;;;24.70;1.00;;;;;;6285054;28;20263;-56
2022/08/19 15:03:52;;;;;;;15.47;14.27;;;24.70;1.00;;;;;;6284591;28;20424;-56
2022/08/19 15:06:56;;;;;;;15.13;13.70;;;24.70;1.00;;;;;;6285001;28;20233;-55
2022/08/19 15:10:00;;;;;;;15.90;14.60;;;24.70;1.00;;;;;;6284625;28;20368;-55
2022/08/19 15:13:03;;;;;;;14.80;13.37;;;24.70;1.00;;;;;;6285870;28;20414;-56
2022/08/19 15:16:06;;;;;;;12.90;12.00;;;24.70;1.00;;;;;;6278156;28;20391;-56
2022/08/19 15:19:20;;;;;;;13.47;12.43;;;24.70;1.00;;;;;;6282230;28;20272;-57
2022/08/19 15:22:24;;;;;;;12.33;11.57;;;24.70;1.00;;;;;;6282678;28;20671;-56
2022/08/19 15:25:28;;;;;;;13.33;12.43;;;24.70;1.00;;;;;;6285130;28;20320;-57
2022/08/19 15:28:31;;;;;;;13.00;12.20;;;24.60;1.00;;;;;;6279055;28;20287;-60
2022/08/19 15:31:39;;;;;;;13.00;12.20;;;24.50;1.00;;;;;;6284806;28;20233;-57
2022/08/19 15:34:43;;;;;;;13.77;12.63;;;24.50;1.00;;;;;;6281184;28;20734;-56
2022/08/19 15:37:51;;;;;;;13.80;12.70;;;24.50;1.00;;;;;;6284531;28;20630;-57
2022/08/19 15:41:22;;;;;;;12.43;11.67;;;24.50;1.00;;;;;;6285177;28;20468;-56
2022/08/19 15:44:21;;;;;;;14.47;13.37;;;24.30;1.00;;;;;;6283949;28;20377;-56
2022/08/19 15:47:25;;;;;;;14.10;13.07;;;24.30;1.00;;;;;;6283047;28;20230;-56
2022/08/19 15:50:31;;;;;;;13.23;12.37;;;24.10;1.00;;;;;;6285699;28;20606;-56
2022/08/19 15:53:35;;;;;;;12.50;11.80;;;24.00;1.00;;;;;;6277605;28;20244;-55
2022/08/19 16:06:45;;;;;;;13.13;12.23;;;23.70;1.00;;;;;;6284458;28;20252;-56
2022/08/19 16:09:50;;;;;;;11.10;10.50;;;23.60;1.00;;;;;;6285148;28;20229;-55
2022/08/19 16:12:53;;;;;;;11.60;10.90;;;23.70;1.00;;;;;;6284215;28;20234;-54
2022/08/19 16:15:57;;;;;;;13.43;12.43;;;23.70;1.00;;;;;;6280613;28;20596;-56
2022/08/19 16:19:04;;;;;;;13.40;12.50;;;23.70;1.00;;;;;;6284458;28;20616;-56
2022/08/19 16:22:12;;;;;;;15.00;13.90;;;23.60;1.00;;;;;;6272077;28;20593;-58
2022/08/19 16:25:16;;;;;;;13.97;13.07;;;23.50;1.00;;;;;;6280603;28;20368;-57
2022/08/19 16:28:21;;;;;;;15.03;13.83;;;23.50;1.00;;;;;;6284241;28;20250;-61
2022/08/19 16:31:25;;;;;;;15.50;14.50;;;23.50;1.00;;;;;;6283619;28;20328;-55
2022/08/19 16:34:28;;;;;;;15.27;14.07;;;23.50;1.00;;;;;;6280892;28;20299;-55